Ms Folla 2 — LLPD — position and weather

sailwx.info

Track history (hours):
 
Tides and Currents Weather Stations Pressure Air Temp Water Temp Dewpoint Dewpoint Depression Visibility Wind Speed Wind Dir Waves Ship Positions

Ms Folla 2

Last reported at 2016-Feb-12 06:13 UTC. Time now 2016-Feb-12 09:56 UTC.
Position N 66°42' E 012°50'.

Length 52 m; draft 5.5 m.

Type: Cargo ship. MMSI: 258253000.

Date/timePositionNaut miles runAvg speedWind from/ knotsBaromVisibWave heightAir tempDewpointWater temp
2016-Feb-12 06:13N 66°42' E 012°50'710.9
2016-Feb-12 05:32N 66°35' E 012°46'1110.8
2016-Feb-12 04:33N 66°24' E 012°46'16 6.6
2016-Feb-12 02:11N 66°08' E 012°50'48 9.5
2016-Feb-11 21:10N 65°24' E 012°08'710.8
2016-Feb-11 20:33N 65°18' E 011°60'1110.7
2016-Feb-11 19:33N 65°08' E 011°50'1010.3
2016-Feb-11 18:33N 64°60' E 011°36'1110.6
2016-Feb-11 17:33N 64°53' E 011°17'10 9.3
2016-Feb-11 16:31N 64°44' E 011°07'10 0.4
2016-Feb-10 15:33N 64°37' E 011°21'7 6.8
2016-Feb-10 14:32N 64°43' E 011°28'3 3.1
2016-Feb-10 13:33N 64°43' E 011°21'8 7.7
2016-Feb-10 12:33N 64°48' E 011°07'5 5.1
2016-Feb-10 11:32N 64°51' E 011°17'0 0.0
2016-Feb-10 10:32N 64°51' E 011°17'0 0.0
2016-Feb-10 09:32N 64°51' E 011°17'0 0.0
2016-Feb-10 08:32N 64°51' E 011°17'0 0.0
2016-Feb-10 07:32N 64°51' E 011°17'0 0.0
2016-Feb-10 06:32N 64°51' E 011°17'0 0.0
2016-Feb-10 05:32N 64°51' E 011°17'0 0.0
2016-Feb-10 04:32N 64°51' E 011°17'0 0.0
2016-Feb-10 03:32N 64°51' E 011°17'0 0.0
2016-Feb-10 02:32N 64°51' E 011°17'0 0.0
2016-Feb-10 01:32N 64°51' E 011°17'0 0.0
2016-Feb-10 00:32N 64°51' E 011°17'0 0.0
2016-Feb-09 23:32N 64°51' E 011°17'0 0.0
2016-Feb-09 22:32N 64°51' E 011°17'0 0.0
2016-Feb-09 21:32N 64°51' E 011°17'0 0.0
2016-Feb-09 20:32N 64°51' E 011°17'0 0.0
2016-Feb-09 19:32N 64°51' E 011°17'0 0.0
2016-Feb-09 18:32N 64°51' E 011°17'0 0.0
2016-Feb-09 17:29N 64°51' E 011°17'0 0.0
2016-Feb-09 16:32N 64°51' E 011°17'0 0.0
2016-Feb-09 15:32N 64°51' E 011°17'0 0.0
2016-Feb-09 14:32N 64°51' E 011°17'0 0.0
2016-Feb-09 13:32N 64°51' E 011°17'0 0.0
2016-Feb-09 12:32N 64°51' E 011°17'4 3.9
2016-Feb-09 11:33N 64°49' E 011°09'7 6.8
2016-Feb-09 10:33N 64°46' E 010°55'3 3.4
2016-Feb-09 09:34N 64°48' E 011°02'7 6.4
2016-Feb-09 08:32N 64°52' E 011°14'1 1.0
2016-Feb-09 07:31N 64°51' E 011°17'0 0.0
2016-Feb-09 06:31N 64°51' E 011°17'0 0.0
2016-Feb-09 05:31N 64°51' E 011°17'0 0.0
2016-Feb-09 04:31N 64°51' E 011°17'0 0.0
2016-Feb-09 03:31N 64°51' E 011°17'0 0.0
2016-Feb-09 02:31N 64°51' E 011°17'0 0.0
2016-Feb-09 01:31N 64°51' E 011°17'0 0.0
2016-Feb-09 00:31N 64°51' E 011°17'0 0.0
2016-Feb-08 23:31N 64°51' E 011°17'0 0.0
2016-Feb-08 22:31N 64°51' E 011°17'0 0.0
2016-Feb-08 21:31N 64°51' E 011°17'0 0.0
2016-Feb-08 20:31N 64°51' E 011°17'0 0.0
2016-Feb-08 19:31N 64°51' E 011°17'0 0.0
2016-Feb-08 18:31N 64°51' E 011°17'0 0.0
2016-Feb-08 17:31N 64°51' E 011°17'0 0.0
2016-Feb-08 16:31N 64°51' E 011°17'0 0.0
2016-Feb-08 15:31N 64°51' E 011°17'0 0.0
2016-Feb-08 14:31N 64°51' E 011°17'0 0.0
2016-Feb-08 13:33N 64°51' E 011°17'0 0.0
2016-Feb-08 12:33N 64°51' E 011°17'0 0.0
2016-Feb-08 11:33N 64°51' E 011°17'0 0.0
2016-Feb-08 10:33N 64°51' E 011°17'0 0.0
2016-Feb-08 09:33N 64°51' E 011°17'1 1.0
2016-Feb-08 08:33N 64°52' E 011°15'9 8.6
2016-Feb-08 07:33N 64°57' E 011°30'1010.2
2016-Feb-08 06:33N 65°05' E 011°46'1110.5
2016-Feb-08 05:34N 65°15' E 011°55'7110.2
2016-Feb-07 22:33N 66°21' E 012°57'2110.0
2016-Feb-07 20:25N 66°42' E 013°09'15 7.9
2016-Feb-07 18:29N 66°55' E 013°30'9 9.5
2016-Feb-07 17:33N 67°02' E 013°45'1110.8
2016-Feb-07 16:34N 67°10' E 014°03'1111.3
2016-Feb-07 15:33N 67°19' E 014°19'1110.6
2016-Feb-07 14:33N 67°29' E 014°28'1310.5
2016-Feb-07 13:19N 67°42' E 014°30'81 5.1
2016-Feb-06 21:30N 68°46' E 016°47'1310.8
2016-Feb-06 20:20N 68°56' E 017°07'911.1
2016-Feb-06 19:29N 69°04' E 017°22'1011.3
2016-Feb-06 18:33N 69°09' E 017°48'9 9.0
2016-Feb-06 17:33N 69°17' E 017°58'2 0.3
2016-Feb-06 09:14N 69°19' E 018°01'5 7.8
2016-Feb-06 08:33N 69°14' E 017°58'4 3.8
2016-Feb-06 07:33N 69°10' E 017°59'1110.9
2016-Feb-06 06:33N 69°06' E 017°31'160 7.2
2016-Feb-05 08:19N 66°57' E 013°20'21 7.4
2016-Feb-05 05:28N 66°37' E 012°59'1211.5
2016-Feb-05 04:23N 66°25' E 012°59'64 9.5
2016-Feb-04 21:34N 65°24' E 012°08'1111.3
2016-Feb-04 20:33N 65°14' E 011°55'10 9.7
2016-Feb-04 19:33N 65°05' E 011°44'9 9.0
2016-Feb-04 18:33N 64°58' E 011°33'1111.0
2016-Feb-04 17:34N 64°51' E 011°13'10 9.8
2016-Feb-04 16:33N 64°41' E 011°07'10 0.3
2016-Feb-03 11:07N 64°34' E 011°21'610.8
2016-Feb-03 10:33N 64°38' E 011°11'1110.7
2016-Feb-03 09:33N 64°48' E 011°07'5 5.1
2016-Feb-03 08:34N 64°51' E 011°17'0 0.0
2016-Feb-03 07:34N 64°51' E 011°17'0 0.0
2016-Feb-03 06:34N 64°51' E 011°17'0 0.0
2016-Feb-03 05:33N 64°51' E 011°17'0 0.0
2016-Feb-03 04:34N 64°51' E 011°17'0 0.0
2016-Feb-03 03:33N 64°51' E 011°17'0 0.0
2016-Feb-03 02:34N 64°51' E 011°17'0 0.0
2016-Feb-03 01:33N 64°51' E 011°17'0 0.0
2016-Feb-03 00:33N 64°51' E 011°17'0 0.0
2016-Feb-02 23:34N 64°51' E 011°17'0 0.0
2016-Feb-02 22:34N 64°51' E 011°17'0 0.0
2016-Feb-02 21:34N 64°51' E 011°17'0 0.0
2016-Feb-02 20:34N 64°51' E 011°17'0 0.0
2016-Feb-02 19:34N 64°51' E 011°17'0 0.0
2016-Feb-02 18:33N 64°51' E 011°17'0 0.0
2016-Feb-02 17:34N 64°51' E 011°17'0 0.0
2016-Feb-02 16:34N 64°51' E 011°17'1 1.4
2016-Feb-02 15:33N 64°51' E 011°14'9 9.1
2016-Feb-02 14:31N 64°46' E 010°55'0 0.0
2016-Feb-02 13:33N 64°46' E 010°55'3 3.4
2016-Feb-02 12:33N 64°48' E 011°02'0 0.0
2016-Feb-02 11:34N 64°48' E 011°02'0 0.0
2016-Feb-02 10:33N 64°48' E 011°02'0 0.2
2016-Feb-02 09:33N 64°48' E 011°02'7 7.1
2016-Feb-02 08:34N 64°51' E 011°17'0 0.0
2016-Feb-02 07:34N 64°51' E 011°17'0 0.0
2016-Feb-02 06:34N 64°51' E 011°17'  
Track history (hours):
 
Tides and Currents Weather Stations Pressure Air Temp Water Temp Dewpoint Dewpoint Depression Visibility Wind Speed Wind Dir Waves Ship Positions

Ms Folla 2

Last reported at 2016-Feb-12 06:13 UTC. Time now 2016-Feb-12 09:56 UTC.
Position N 66°42' E 012°50'.

Length 52 m; draft 5.5 m.

Type: Cargo ship. MMSI: 258253000.

Date/timePositionNaut miles runAvg speedWind from/ knotsBaromVisibWave heightAir tempDewpointWater temp
2016-Feb-12 06:13N 66°42' E 012°50'710.9
2016-Feb-12 05:32N 66°35' E 012°46'1110.8
2016-Feb-12 04:33N 66°24' E 012°46'16 6.6
2016-Feb-12 02:11N 66°08' E 012°50'48 9.5
2016-Feb-11 21:10N 65°24' E 012°08'710.8
2016-Feb-11 20:33N 65°18' E 011°60'1110.7
2016-Feb-11 19:33N 65°08' E 011°50'1010.3
2016-Feb-11 18:33N 64°60' E 011°36'1110.6
2016-Feb-11 17:33N 64°53' E 011°17'10 9.3
2016-Feb-11 16:31N 64°44' E 011°07'10 0.4
2016-Feb-10 15:33N 64°37' E 011°21'7 6.8
2016-Feb-10 14:32N 64°43' E 011°28'3 3.1
2016-Feb-10 13:33N 64°43' E 011°21'8 7.7
2016-Feb-10 12:33N 64°48' E 011°07'5 5.1
2016-Feb-10 11:32N 64°51' E 011°17'0 0.0
2016-Feb-10 10:32N 64°51' E 011°17'0 0.0
2016-Feb-10 09:32N 64°51' E 011°17'0 0.0
2016-Feb-10 08:32N 64°51' E 011°17'0 0.0
2016-Feb-10 07:32N 64°51' E 011°17'0 0.0
2016-Feb-10 06:32N 64°51' E 011°17'0 0.0
2016-Feb-10 05:32N 64°51' E 011°17'0 0.0
2016-Feb-10 04:32N 64°51' E 011°17'0 0.0
2016-Feb-10 03:32N 64°51' E 011°17'0 0.0
2016-Feb-10 02:32N 64°51' E 011°17'0 0.0
2016-Feb-10 01:32N 64°51' E 011°17'0 0.0
2016-Feb-10 00:32N 64°51' E 011°17'0 0.0
2016-Feb-09 23:32N 64°51' E 011°17'0 0.0
2016-Feb-09 22:32N 64°51' E 011°17'0 0.0
2016-Feb-09 21:32N 64°51' E 011°17'0 0.0
2016-Feb-09 20:32N 64°51' E 011°17'0 0.0
2016-Feb-09 19:32N 64°51' E 011°17'0 0.0
2016-Feb-09 18:32N 64°51' E 011°17'0 0.0
2016-Feb-09 17:29N 64°51' E 011°17'0 0.0
2016-Feb-09 16:32N 64°51' E 011°17'0 0.0
2016-Feb-09 15:32N 64°51' E 011°17'0 0.0
2016-Feb-09 14:32N 64°51' E 011°17'0 0.0
2016-Feb-09 13:32N 64°51' E 011°17'0 0.0
2016-Feb-09 12:32N 64°51' E 011°17'4 3.9
2016-Feb-09 11:33N 64°49' E 011°09'7 6.8
2016-Feb-09 10:33N 64°46' E 010°55'3 3.4
2016-Feb-09 09:34N 64°48' E 011°02'7 6.4
2016-Feb-09 08:32N 64°52' E 011°14'1 1.0
2016-Feb-09 07:31N 64°51' E 011°17'0 0.0
2016-Feb-09 06:31N 64°51' E 011°17'0 0.0
2016-Feb-09 05:31N 64°51' E 011°17'0 0.0
2016-Feb-09 04:31N 64°51' E 011°17'0 0.0
2016-Feb-09 03:31N 64°51' E 011°17'0 0.0
2016-Feb-09 02:31N 64°51' E 011°17'0 0.0
2016-Feb-09 01:31N 64°51' E 011°17'0 0.0
2016-Feb-09 00:31N 64°51' E 011°17'0 0.0
2016-Feb-08 23:31N 64°51' E 011°17'0 0.0
2016-Feb-08 22:31N 64°51' E 011°17'0 0.0
2016-Feb-08 21:31N 64°51' E 011°17'0 0.0
2016-Feb-08 20:31N 64°51' E 011°17'0 0.0
2016-Feb-08 19:31N 64°51' E 011°17'0 0.0
2016-Feb-08 18:31N 64°51' E 011°17'0 0.0
2016-Feb-08 17:31N 64°51' E 011°17'0 0.0
2016-Feb-08 16:31N 64°51' E 011°17'0 0.0
2016-Feb-08 15:31N 64°51' E 011°17'0 0.0
2016-Feb-08 14:31N 64°51' E 011°17'0 0.0
2016-Feb-08 13:33N 64°51' E 011°17'0 0.0
2016-Feb-08 12:33N 64°51' E 011°17'0 0.0
2016-Feb-08 11:33N 64°51' E 011°17'0 0.0
2016-Feb-08 10:33N 64°51' E 011°17'0 0.0
2016-Feb-08 09:33N 64°51' E 011°17'1 1.0
2016-Feb-08 08:33N 64°52' E 011°15'9 8.6
2016-Feb-08 07:33N 64°57' E 011°30'1010.2
2016-Feb-08 06:33N 65°05' E 011°46'1110.5
2016-Feb-08 05:34N 65°15' E 011°55'7110.2
2016-Feb-07 22:33N 66°21' E 012°57'2110.0
2016-Feb-07 20:25N 66°42' E 013°09'15 7.9
2016-Feb-07 18:29N 66°55' E 013°30'9 9.5
2016-Feb-07 17:33N 67°02' E 013°45'1110.8
2016-Feb-07 16:34N 67°10' E 014°03'1111.3
2016-Feb-07 15:33N 67°19' E 014°19'1110.6
2016-Feb-07 14:33N 67°29' E 014°28'1310.5
2016-Feb-07 13:19N 67°42' E 014°30'81 5.1
2016-Feb-06 21:30N 68°46' E 016°47'1310.8
2016-Feb-06 20:20N 68°56' E 017°07'911.1
2016-Feb-06 19:29N 69°04' E 017°22'1011.3
2016-Feb-06 18:33N 69°09' E 017°48'9 9.0
2016-Feb-06 17:33N 69°17' E 017°58'2 0.3
2016-Feb-06 09:14N 69°19' E 018°01'5 7.8
2016-Feb-06 08:33N 69°14' E 017°58'4 3.8
2016-Feb-06 07:33N 69°10' E 017°59'1110.9
2016-Feb-06 06:33N 69°06' E 017°31'160 7.2
2016-Feb-05 08:19N 66°57' E 013°20'21 7.4
2016-Feb-05 05:28N 66°37' E 012°59'1211.5
2016-Feb-05 04:23N 66°25' E 012°59'64 9.5
2016-Feb-04 21:34N 65°24' E 012°08'1111.3
2016-Feb-04 20:33N 65°14' E 011°55'10 9.7
2016-Feb-04 19:33N 65°05' E 011°44'9 9.0
2016-Feb-04 18:33N 64°58' E 011°33'1111.0
2016-Feb-04 17:34N 64°51' E 011°13'10 9.8
2016-Feb-04 16:33N 64°41' E 011°07'10 0.3
2016-Feb-03 11:07N 64°34' E 011°21'610.8
2016-Feb-03 10:33N 64°38' E 011°11'1110.7
2016-Feb-03 09:33N 64°48' E 011°07'5 5.1
2016-Feb-03 08:34N 64°51' E 011°17'0 0.0
2016-Feb-03 07:34N 64°51' E 011°17'0 0.0
2016-Feb-03 06:34N 64°51' E 011°17'0 0.0
2016-Feb-03 05:33N 64°51' E 011°17'0 0.0
2016-Feb-03 04:34N 64°51' E 011°17'0 0.0
2016-Feb-03 03:33N 64°51' E 011°17'0 0.0
2016-Feb-03 02:34N 64°51' E 011°17'0 0.0
2016-Feb-03 01:33N 64°51' E 011°17'0 0.0
2016-Feb-03 00:33N 64°51' E 011°17'0 0.0
2016-Feb-02 23:34N 64°51' E 011°17'0 0.0
2016-Feb-02 22:34N 64°51' E 011°17'0 0.0
2016-Feb-02 21:34N 64°51' E 011°17'0 0.0
2016-Feb-02 20:34N 64°51' E 011°17'0 0.0
2016-Feb-02 19:34N 64°51' E 011°17'0 0.0
2016-Feb-02 18:33N 64°51' E 011°17'0 0.0
2016-Feb-02 17:34N 64°51' E 011°17'0 0.0
2016-Feb-02 16:34N 64°51' E 011°17'1 1.4
2016-Feb-02 15:33N 64°51' E 011°14'9 9.1
2016-Feb-02 14:31N 64°46' E 010°55'0 0.0
2016-Feb-02 13:33N 64°46' E 010°55'3 3.4
2016-Feb-02 12:33N 64°48' E 011°02'0 0.0
2016-Feb-02 11:34N 64°48' E 011°02'0 0.0
2016-Feb-02 10:33N 64°48' E 011°02'0 0.2
2016-Feb-02 09:33N 64°48' E 011°02'7 7.1
2016-Feb-02 08:34N 64°51' E 011°17'0 0.0
2016-Feb-02 07:34N 64°51' E 011°17'0 0.0
2016-Feb-02 06:34N 64°51' E 011°17'  

Dump ship's entire track history